Time;durP1;ratioP1;P1;durP2;ratioP2;P2;SDS_P1;SDS_P2;PMS_P1;PMS_P2;Temp;Humidity;BMP_temperature;BMP_pressure;BME280_temperature;BME280_humidity;BME280_pressure;Samples;Min_cycle;Max_cycle;Signal;HPM_P1;HPM_P2
2022/11/01 00:01:28;;;;;;;53.33;31.60;;;;;;;;;;5075317;28;20915;-66
2022/11/01 00:03:56;;;;;;;59.00;32.70;;;;;;;;;;5075657;28;20458;-65
2022/11/01 00:06:23;;;;;;;58.90;33.20;;;;;;;;;;5074965;28;20447;-66
2022/11/01 00:08:50;;;;;;;50.00;30.00;;;;;;;;;;5074881;28;20472;-65
2022/11/01 00:11:18;;;;;;;60.33;31.30;;;;;;;;;;5074040;28;20457;-66
2022/11/01 00:13:46;;;;;;;54.43;32.03;;;;;;;;;;5073349;28;20449;-66
2022/11/01 00:16:13;;;;;;;57.87;31.10;;;;;;;;;;5072990;28;20479;-66
2022/11/01 00:18:40;;;;;;;64.07;33.60;;;;;;;;;;5073021;28;20471;-66
2022/11/01 00:21:08;;;;;;;65.27;33.67;;;;;;;;;;5073125;28;20439;-66
2022/11/01 00:23:36;;;;;;;56.93;30.70;;;;;;;;;;5072968;28;20450;-65
2022/11/01 00:26:03;;;;;;;59.57;32.40;;;;;;;;;;5074616;28;20864;-65
2022/11/01 00:28:31;;;;;;;61.13;32.63;;;;;;;;;;5079416;28;20550;-65
2022/11/01 00:30:58;;;;;;;56.93;32.40;;;;;;;;;;5080764;28;20432;-65
2022/11/01 00:33:26;;;;;;;58.23;33.53;;;;;;;;;;5079394;28;20447;-64
2022/11/01 00:35:53;;;;;;;59.90;32.83;;;;;;;;;;5080998;28;20476;-66
2022/11/01 00:38:21;;;;;;;57.83;33.07;;;;;;;;;;5077321;28;20453;-66
2022/11/01 00:40:48;;;;;;;59.93;35.07;;;;;;;;;;5077125;28;20451;-65
2022/11/01 00:43:15;;;;;;;61.87;33.80;;;;;;;;;;5088255;28;20442;-66
2022/11/01 00:45:43;;;;;;;62.63;32.03;;;;;;;;;;5080686;28;20438;-66
2022/11/01 00:48:10;;;;;;;62.50;33.40;;;;;;;;;;5076712;28;20933;-66
2022/11/01 00:50:37;;;;;;;54.70;32.90;;;;;;;;;;5077065;28;20445;-65
2022/11/01 00:53:05;;;;;;;54.57;30.70;;;;;;;;;;5077067;28;20446;-66
2022/11/01 00:55:33;;;;;;;55.53;32.67;;;;;;;;;;5077261;28;20482;-66
2022/11/01 00:58:00;;;;;;;56.53;33.13;;;;;;;;;;5076880;28;20452;-66
2022/11/01 01:00:27;;;;;;;61.27;32.47;;;;;;;;;;5076615;28;20451;-65
2022/11/01 01:02:54;;;;;;;62.20;32.10;;;;;;;;;;5076560;28;20446;-66
2022/11/01 01:05:22;;;;;;;60.87;32.30;;;;;;;;;;5076634;28;20431;-66
2022/11/01 01:07:49;;;;;;;57.70;32.03;;;;;;;;;;5076490;28;20455;-65
2022/11/01 01:10:16;;;;;;;57.43;32.17;;;;;;;;;;5076727;28;20466;-65
2022/11/01 01:12:44;;;;;;;53.60;32.30;;;;;;;;;;5076865;28;20530;-67
2022/11/01 01:15:12;;;;;;;55.33;31.83;;;;;;;;;;5076280;28;20475;-66
2022/11/01 01:17:39;;;;;;;54.13;31.43;;;;;;;;;;5076688;28;20449;-67
2022/11/01 01:20:07;;;;;;;53.53;31.13;;;;;;;;;;5076874;28;20473;-65
2022/11/01 01:22:34;;;;;;;53.27;32.27;;;;;;;;;;5076465;28;20516;-66
2022/11/01 01:25:01;;;;;;;50.67;31.83;;;;;;;;;;5076447;28;20446;-66
2022/11/01 01:27:28;;;;;;;50.73;29.63;;;;;;;;;;5076502;28;20447;-66
2022/11/01 01:29:56;;;;;;;57.90;31.73;;;;;;;;;;5076237;28;20513;-66
2022/11/01 01:32:24;;;;;;;55.03;30.07;;;;;;;;;;5076115;28;20442;-67
2022/11/01 01:34:51;;;;;;;62.90;31.57;;;;;;;;;;5075953;28;20479;-66
2022/11/01 01:37:19;;;;;;;52.87;30.20;;;;;;;;;;5075443;28;20444;-66
2022/11/01 01:39:46;;;;;;;50.13;29.97;;;;;;;;;;5075892;28;20600;-67
2022/11/01 01:42:16;;;;;;;57.03;32.50;;;;;;;;;;5076296;28;20444;-65
2022/11/01 01:45:01;;;;;;;55.73;30.77;;;;;;;;;;5076208;28;20509;-64
2022/11/01 01:47:30;;;;;;;53.77;29.83;;;;;;;;;;5069293;28;20447;-66
2022/11/01 01:50:00;;;;;;;57.40;30.40;;;;;;;;;;5075356;28;20983;-66
2022/11/01 01:52:29;;;;;;;51.27;28.53;;;;;;;;;;5076368;28;20447;-66
2022/11/01 01:54:56;;;;;;;51.50;29.60;;;;;;;;;;5075787;28;20692;-65
2022/11/01 01:57:24;;;;;;;50.10;29.60;;;;;;;;;;5076146;28;20810;-65
2022/11/01 01:59:52;;;;;;;49.50;29.47;;;;;;;;;;5075816;28;20841;-65
2022/11/01 02:02:19;;;;;;;48.80;28.53;;;;;;;;;;5076073;28;20439;-65
2022/11/01 02:04:51;;;;;;;47.00;29.10;;;;;;;;;;5075528;28;20453;-65
2022/11/01 02:07:19;;;;;;;45.97;30.27;;;;;;;;;;5075212;28;20805;-65
2022/11/01 02:09:46;;;;;;;47.47;30.47;;;;;;;;;;5075383;28;20469;-66
2022/11/01 02:12:13;;;;;;;51.50;31.37;;;;;;;;;;5075357;28;20445;-66
2022/11/01 02:14:41;;;;;;;49.43;30.53;;;;;;;;;;5075006;28;21018;-66
2022/11/01 02:17:11;;;;;;;46.73;29.40;;;;;;;;;;5075379;28;20451;-66
2022/11/01 02:19:50;;;;;;;49.43;28.97;;;;;;;;;;5075127;28;20494;-66
2022/11/01 02:22:21;;;;;;;51.57;29.33;;;;;;;;;;5075091;28;20437;-65
2022/11/01 02:25:00;;;;;;;48.33;29.70;;;;;;;;;;5075085;28;20428;-66
2022/11/01 02:27:32;;;;;;;47.60;29.73;;;;;;;;;;5075394;28;20425;-66
2022/11/01 02:30:07;;;;;;;50.07;28.90;;;;;;;;;;5074791;28;20852;-66
2022/11/01 02:32:38;;;;;;;45.50;32.13;;;;;;;;;;5075094;28;20426;-65
2022/11/01 02:35:11;;;;;;;43.07;28.13;;;;;;;;;;5080387;28;20438;-65
2022/11/01 02:37:41;;;;;;;49.80;27.53;;;;;;;;;;5082325;28;20434;-66
2022/11/01 02:40:10;;;;;;;44.40;27.93;;;;;;;;;;5075282;28;20469;-66
2022/11/01 02:42:38;;;;;;;50.53;28.00;;;;;;;;;;5074829;28;20511;-66
2022/11/01 02:45:07;;;;;;;44.60;28.57;;;;;;;;;;5074733;28;20461;-66
2022/11/01 02:47:34;;;;;;;43.90;28.20;;;;;;;;;;5074578;28;20445;-65
2022/11/01 02:50:04;;;;;;;53.33;29.70;;;;;;;;;;5073536;28;20456;-65
2022/11/01 02:52:32;;;;;;;44.50;27.17;;;;;;;;;;5074272;28;20826;-66
2022/11/01 02:55:00;;;;;;;42.87;26.90;;;;;;;;;;5075709;28;20815;-68
2022/11/01 02:57:33;;;;;;;50.90;29.00;;;;;;;;;;5074442;28;20455;-68
2022/11/01 03:00:03;;;;;;;44.67;26.80;;;;;;;;;;5074420;28;20471;-67
2022/11/01 03:02:39;;;;;;;43.53;27.50;;;;;;;;;;5074259;28;20501;-67
2022/11/01 03:05:08;;;;;;;47.53;26.50;;;;;;;;;;5074227;28;20839;-68
2022/11/01 03:07:35;;;;;;;41.60;26.60;;;;;;;;;;5074430;28;20436;-67
2022/11/01 03:10:03;;;;;;;43.03;26.47;;;;;;;;;;5074340;28;20472;-68
2022/11/01 03:12:33;;;;;;;43.10;26.13;;;;;;;;;;5074270;28;20449;-67
2022/11/01 03:15:03;;;;;;;37.87;26.37;;;;;;;;;;5073976;28;20899;-68
2022/11/01 03:17:33;;;;;;;39.30;25.90;;;;;;;;;;5074201;28;20452;-67
2022/11/01 03:20:02;;;;;;;40.47;25.37;;;;;;;;;;5073711;28;20471;-68
2022/11/01 03:22:37;;;;;;;38.53;25.43;;;;;;;;;;5073667;28;20818;-67
2022/11/01 03:25:36;;;;;;;36.17;24.07;;;;;;;;;;5074131;28;20423;-66
2022/11/01 03:27:56;;;;;;;35.00;24.37;;;;;;;;;;5073781;28;20467;-68
2022/11/01 03:30:23;;;;;;;39.10;23.10;;;;;;;;;;5073615;28;20480;-68
2022/11/01 03:32:52;;;;;;;46.50;25.67;;;;;;;;;;5073627;28;20965;-67
2022/11/01 03:35:21;;;;;;;36.87;24.87;;;;;;;;;;5073761;28;20837;-66
2022/11/01 03:37:50;;;;;;;34.93;23.30;;;;;;;;;;5073601;28;20444;-68
2022/11/01 03:40:18;;;;;;;36.30;23.60;;;;;;;;;;5073446;28;20988;-67
2022/11/01 03:42:46;;;;;;;31.40;22.60;;;;;;;;;;5073485;28;20951;-67
2022/11/01 03:45:14;;;;;;;36.07;24.13;;;;;;;;;;5073519;28;20968;-68
2022/11/01 03:47:42;;;;;;;30.03;22.77;;;;;;;;;;5074308;28;20435;-66
2022/11/01 03:50:13;;;;;;;31.90;21.40;;;;;;;;;;5073816;28;20988;-68
2022/11/01 03:52:40;;;;;;;29.83;21.73;;;;;;;;;;5073428;28;20927;-68
2022/11/01 03:55:17;;;;;;;30.37;21.10;;;;;;;;;;5074752;28;20815;-68
2022/11/01 03:57:45;;;;;;;34.73;21.07;;;;;;;;;;5074204;28;20460;-68
2022/11/01 04:00:14;;;;;;;27.53;20.50;;;;;;;;;;5073201;28;20498;-69
2022/11/01 04:02:41;;;;;;;27.47;20.40;;;;;;;;;;5082569;28;20454;-69
2022/11/01 04:05:08;;;;;;;34.17;21.50;;;;;;;;;;5082093;28;20447;-68
2022/11/01 04:10:28;;;;;;;28.40;20.98;;;;;;;;;;5129633;27;1254641;-68
2022/11/01 04:12:56;;;;;;;34.47;20.37;;;;;;;;;;5173354;27;20194;-69
2022/11/01 04:20:58;;;;;;;30.03;19.80;;;;;;;;;;5153967;27;20403;-68
2022/11/01 04:23:25;;;;;;;29.67;20.80;;;;;;;;;;5154754;27;20961;-67
2022/11/01 04:25:53;;;;;;;33.53;20.27;;;;;;;;;;5157129;27;20451;-68
2022/11/01 04:28:20;;;;;;;28.80;21.10;;;;;;;;;;5167217;27;20439;-67
2022/11/01 04:30:48;;;;;;;32.90;20.33;;;;;;;;;;5156723;27;20448;-66
2022/11/01 04:33:15;;;;;;;28.57;19.27;;;;;;;;;;5151904;27;20468;-66
2022/11/01 04:35:42;;;;;;;24.20;18.00;;;;;;;;;;5152078;27;20439;-67
2022/11/01 04:38:10;;;;;;;27.03;17.97;;;;;;;;;;5152077;27;20443;-68
2022/11/01 04:40:37;;;;;;;32.33;18.90;;;;;;;;;;5152161;27;20836;-67
2022/11/01 04:43:06;;;;;;;29.00;18.50;;;;;;;;;;5151799;27;20450;-67
2022/11/01 04:45:33;;;;;;;23.73;19.20;;;;;;;;;;5151782;27;20937;-67
2022/11/01 04:48:04;;;;;;;27.83;18.20;;;;;;;;;;5151738;27;20448;-66
2022/11/01 04:50:31;;;;;;;24.93;17.23;;;;;;;;;;5151713;27;20485;-67
2022/11/01 04:52:58;;;;;;;26.13;18.50;;;;;;;;;;5151702;27;20814;-67
2022/11/01 04:55:26;;;;;;;25.47;16.87;;;;;;;;;;5152368;27;20446;-67
2022/11/01 04:57:53;;;;;;;22.47;16.83;;;;;;;;;;5152072;27;20454;-67
2022/11/01 05:00:22;;;;;;;24.70;15.70;;;;;;;;;;5151913;27;20456;-66
2022/11/01 05:02:50;;;;;;;25.23;16.23;;;;;;;;;;5152439;27;20447;-67
2022/11/01 05:05:17;;;;;;;22.20;15.90;;;;;;;;;;5178722;27;20457;-67
2022/11/01 05:07:45;;;;;;;21.90;16.10;;;;;;;;;;5183693;27;20443;-67
2022/11/01 05:10:12;;;;;;;23.63;15.77;;;;;;;;;;5183521;27;20493;-66
2022/11/01 05:12:39;;;;;;;24.53;16.63;;;;;;;;;;5178600;27;20461;-67
2022/11/01 05:15:07;;;;;;;18.70;15.27;;;;;;;;;;5175442;27;20450;-66
2022/11/01 05:17:35;;;;;;;24.77;16.77;;;;;;;;;;5175184;27;20457;-69
2022/11/01 05:20:03;;;;;;;20.77;14.80;;;;;;;;;;5162393;27;20467;-67
2022/11/01 05:22:30;;;;;;;23.40;14.83;;;;;;;;;;5137294;27;20555;-66
2022/11/01 05:24:57;;;;;;;20.87;15.07;;;;;;;;;;5137364;27;20444;-67
2022/11/01 05:27:24;;;;;;;19.83;14.20;;;;;;;;;;5136928;27;20985;-65
2022/11/01 05:29:51;;;;;;;20.83;14.37;;;;;;;;;;5136456;27;20966;-67
2022/11/01 05:32:18;;;;;;;21.13;14.60;;;;;;;;;;5137782;27;20811;-65
2022/11/01 05:34:48;;;;;;;20.03;13.20;;;;;;;;;;5138701;27;20448;-66
2022/11/01 05:37:15;;;;;;;19.40;13.30;;;;;;;;;;5146391;27;20458;-66
2022/11/01 05:39:42;;;;;;;17.10;12.43;;;;;;;;;;5143048;27;20510;-66
2022/11/01 05:42:09;;;;;;;16.43;11.93;;;;;;;;;;5140983;27;20440;-66
2022/11/01 05:44:36;;;;;;;15.37;11.43;;;;;;;;;;5140909;27;20449;-66
2022/11/01 05:47:04;;;;;;;16.27;11.00;;;;;;;;;;5139267;27;20449;-66
2022/11/01 05:49:31;;;;;;;15.90;11.10;;;;;;;;;;5139418;27;20487;-66
2022/11/01 05:51:59;;;;;;;16.07;11.73;;;;;;;;;;5138986;27;20441;-66
2022/11/01 05:54:26;;;;;;;15.73;10.80;;;;;;;;;;5138600;27;20464;-65
2022/11/01 05:56:54;;;;;;;13.00;9.80;;;;;;;;;;5139777;27;20788;-66
2022/11/01 05:59:21;;;;;;;15.97;9.60;;;;;;;;;;5139216;27;20459;-66
2022/11/01 06:01:48;;;;;;;14.77;8.80;;;;;;;;;;5140350;27;20448;-65
2022/11/01 06:04:15;;;;;;;14.40;9.83;;;;;;;;;;5139321;27;20451;-67
2022/11/01 06:06:42;;;;;;;14.03;8.03;;;;;;;;;;5139398;27;20507;-68
2022/11/01 06:09:11;;;;;;;12.50;7.73;;;;;;;;;;5143683;27;20561;-68
2022/11/01 06:11:38;;;;;;;11.93;7.00;;;;;;;;;;5148740;27;20443;-67
2022/11/01 06:14:05;;;;;;;9.23;7.67;;;;;;;;;;5139503;27;20459;-68
2022/11/01 06:16:32;;;;;;;9.50;7.17;;;;;;;;;;5138154;27;20441;-68
2022/11/01 06:18:59;;;;;;;12.53;6.80;;;;;;;;;;5138752;27;20468;-67
2022/11/01 06:21:27;;;;;;;9.43;6.80;;;;;;;;;;5138812;27;20451;-68
2022/11/01 06:23:54;;;;;;;9.90;6.67;;;;;;;;;;5137393;27;20524;-67
2022/11/01 06:26:22;;;;;;;16.37;6.53;;;;;;;;;;5138713;27;20452;-66
2022/11/01 06:28:49;;;;;;;8.80;6.37;;;;;;;;;;5136694;27;20461;-67
2022/11/01 06:31:16;;;;;;;10.13;6.43;;;;;;;;;;5136117;27;20444;-66
2022/11/01 06:33:43;;;;;;;8.50;6.30;;;;;;;;;;5136672;27;20458;-67
2022/11/01 06:36:11;;;;;;;10.50;6.60;;;;;;;;;;5138483;27;20452;-67
2022/11/01 06:38:38;;;;;;;9.20;6.10;;;;;;;;;;5139189;27;20462;-67
2022/11/01 06:41:05;;;;;;;8.43;6.10;;;;;;;;;;5139969;27;20437;-66
2022/11/01 06:43:33;;;;;;;9.10;6.30;;;;;;;;;;5142692;27;20449;-68
2022/11/01 06:46:00;;;;;;;7.13;6.30;;;;;;;;;;5143167;27;20441;-65
2022/11/01 06:48:28;;;;;;;7.50;6.43;;;;;;;;;;5143751;27;20476;-67
2022/11/01 06:50:55;;;;;;;6.73;5.97;;;;;;;;;;5137058;27;20489;-66
2022/11/01 06:53:23;;;;;;;11.50;6.93;;;;;;;;;;5137418;27;20835;-65
2022/11/01 06:55:50;;;;;;;9.60;7.33;;;;;;;;;;5137381;27;20461;-67
2022/11/01 06:58:17;;;;;;;8.00;6.73;;;;;;;;;;5138386;27;20479;-67
2022/11/01 07:00:45;;;;;;;7.50;6.40;;;;;;;;;;5137331;27;20441;-66
2022/11/01 07:03:14;;;;;;;13.63;6.97;;;;;;;;;;5135448;27;20464;-69
2022/11/01 07:05:41;;;;;;;7.80;6.53;;;;;;;;;;5134944;27;20445;-67
2022/11/01 07:08:09;;;;;;;7.33;6.23;;;;;;;;;;5135046;27;20473;-66
2022/11/01 07:10:36;;;;;;;7.10;5.93;;;;;;;;;;5134653;27;20841;-67
2022/11/01 07:13:04;;;;;;;8.60;6.00;;;;;;;;;;5135422;27;20448;-67
2022/11/01 07:15:32;;;;;;;10.80;6.90;;;;;;;;;;5135027;27;20442;-68
2022/11/01 07:18:01;;;;;;;9.90;6.87;;;;;;;;;;5135147;27;20541;-65
2022/11/01 07:20:29;;;;;;;9.80;5.70;;;;;;;;;;5135499;27;20434;-67
2022/11/01 07:23:00;;;;;;;7.17;6.40;;;;;;;;;;5136606;27;20446;-67
2022/11/01 07:25:27;;;;;;;8.03;6.30;;;;;;;;;;5137110;27;20498;-66
2022/11/01 07:27:54;;;;;;;9.40;5.90;;;;;;;;;;5136590;27;20446;-65
2022/11/01 07:30:21;;;;;;;7.83;5.77;;;;;;;;;;5137493;27;20847;-65
2022/11/01 07:32:49;;;;;;;8.00;6.17;;;;;;;;;;5136464;27;20445;-68
2022/11/01 07:35:17;;;;;;;14.63;7.20;;;;;;;;;;5136690;27;20469;-67
2022/11/01 07:37:44;;;;;;;7.97;6.53;;;;;;;;;;5136381;27;20439;-67
2022/11/01 07:40:12;;;;;;;14.03;6.20;;;;;;;;;;5136784;27;20459;-67
2022/11/01 07:42:42;;;;;;;10.63;6.67;;;;;;;;;;5135798;27;20449;-69
2022/11/01 07:45:10;;;;;;;11.60;5.60;;;;;;;;;;5134585;27;20528;-67
2022/11/01 07:47:37;;;;;;;11.30;5.97;;;;;;;;;;5134371;27;20445;-68
2022/11/01 07:50:05;;;;;;;9.03;5.60;;;;;;;;;;5136028;27;20490;-68
2022/11/01 07:52:33;;;;;;;10.50;6.60;;;;;;;;;;5147470;27;20442;-67
2022/11/01 07:55:00;;;;;;;11.07;5.90;;;;;;;;;;5139661;27;20452;-67
2022/11/01 07:57:27;;;;;;;6.57;5.37;;;;;;;;;;5136315;27;20449;-66
2022/11/01 07:59:54;;;;;;;10.70;7.50;;;;;;;;;;5135227;27;20457;-67
2022/11/01 08:02:22;;;;;;;8.57;6.40;;;;;;;;;;5136371;27;20442;-68
2022/11/01 08:04:49;;;;;;;10.33;6.70;;;;;;;;;;5138039;27;20817;-66
2022/11/01 08:07:16;;;;;;;9.40;6.57;;;;;;;;;;5138361;28;20442;-68
2022/11/01 08:09:46;;;;;;;9.37;5.00;;;;;;;;;;5138853;28;20554;-68
2022/11/01 08:12:13;;;;;;;9.50;5.60;;;;;;;;;;5138754;28;20814;-68
2022/11/01 08:14:40;;;;;;;10.27;5.90;;;;;;;;;;5143160;28;20446;-67
2022/11/01 08:17:08;;;;;;;8.40;6.33;;;;;;;;;;5136596;28;20537;-66
2022/11/01 08:19:35;;;;;;;9.60;6.00;;;;;;;;;;5136135;28;20457;-68
2022/11/01 08:22:03;;;;;;;10.40;6.47;;;;;;;;;;5136749;28;20451;-67
2022/11/01 08:24:30;;;;;;;9.67;5.30;;;;;;;;;;5135038;28;20514;-66
2022/11/01 08:26:58;;;;;;;7.97;5.57;;;;;;;;;;5134907;28;20813;-67
2022/11/01 08:29:25;;;;;;;5.83;5.00;;;;;;;;;;5138570;28;21001;-67
2022/11/01 08:31:52;;;;;;;8.77;5.40;;;;;;;;;;5138522;28;20434;-65
2022/11/01 08:34:19;;;;;;;7.40;5.50;;;;;;;;;;5139695;28;20438;-68
2022/11/01 08:36:46;;;;;;;9.20;6.10;;;;;;;;;;5138083;28;20861;-67
2022/11/01 08:39:13;;;;;;;6.27;5.50;;;;;;;;;;5137604;28;21019;-66
2022/11/01 08:41:40;;;;;;;7.53;5.13;;;;;;;;;;5137936;28;20950;-68
2022/11/01 08:44:09;;;;;;;7.70;5.60;;;;;;;;;;5139052;28;20511;-67
2022/11/01 08:46:36;;;;;;;9.73;5.90;;;;;;;;;;5140984;27;20460;-69
2022/11/01 08:49:03;;;;;;;6.47;5.30;;;;;;;;;;5136714;28;20466;-68
2022/11/01 08:51:31;;;;;;;6.53;5.10;;;;;;;;;;5134740;28;20486;-68
2022/11/01 08:53:58;;;;;;;6.53;5.07;;;;;;;;;;5134587;28;20450;-66
2022/11/01 08:56:26;;;;;;;7.03;4.80;;;;;;;;;;5136993;27;20438;-68
2022/11/01 08:58:53;;;;;;;8.20;5.03;;;;;;;;;;5144212;27;20493;-68
2022/11/01 09:01:25;;;;;;;5.10;4.60;;;;;;;;;;5144841;27;20445;-67
2022/11/01 09:03:55;;;;;;;4.80;4.30;;;;;;;;;;5147622;27;20423;-67
2022/11/01 09:06:22;;;;;;;5.73;5.10;;;;;;;;;;5147840;27;20451;-67
2022/11/01 09:08:50;;;;;;;4.73;4.27;;;;;;;;;;5147637;27;20466;-65
2022/11/01 09:11:17;;;;;;;9.50;5.30;;;;;;;;;;5144849;27;20471;-68
2022/11/01 09:13:44;;;;;;;6.63;4.30;;;;;;;;;;5143485;27;20926;-67
2022/11/01 09:16:11;;;;;;;5.27;4.63;;;;;;;;;;5140994;27;20447;-66
2022/11/01 09:18:39;;;;;;;7.30;4.37;;;;;;;;;;5139361;27;20467;-68
2022/11/01 09:21:07;;;;;;;5.80;4.67;;;;;;;;;;5137371;27;20466;-66
2022/11/01 09:23:34;;;;;;;7.13;4.90;;;;;;;;;;5137395;27;20443;-68
2022/11/01 09:26:04;;;;;;;4.93;4.43;;;;;;;;;;5137209;27;20492;-67
2022/11/01 09:28:32;;;;;;;7.20;4.50;;;;;;;;;;5136948;27;20825;-67
2022/11/01 09:31:02;;;;;;;10.13;5.20;;;;;;;;;;5137447;27;20474;-67
2022/11/01 09:33:29;;;;;;;5.40;4.40;;;;;;;;;;5137115;27;20451;-67
2022/11/01 09:35:57;;;;;;;5.80;4.43;;;;;;;;;;5137017;27;20437;-67
2022/11/01 09:38:24;;;;;;;6.10;4.33;;;;;;;;;;5136814;27;20470;-68
2022/11/01 09:40:57;;;;;;;8.83;4.63;;;;;;;;;;5136844;27;20446;-67
2022/11/01 09:43:25;;;;;;;8.20;5.43;;;;;;;;;;5138931;27;20432;-68
2022/11/01 09:45:56;;;;;;;5.13;4.67;;;;;;;;;;5137601;27;20435;-68
2022/11/01 09:48:24;;;;;;;5.17;4.60;;;;;;;;;;5136104;27;20971;-68
2022/11/01 09:50:52;;;;;;;4.97;4.10;;;;;;;;;;5137835;27;20495;-67
2022/11/01 09:53:22;;;;;;;8.13;4.23;;;;;;;;;;5136578;27;20452;-67
2022/11/01 09:55:51;;;;;;;7.57;4.80;;;;;;;;;;5137541;27;20450;-67
2022/11/01 09:58:24;;;;;;;5.23;4.73;;;;;;;;;;5136355;27;20962;-68
2022/11/01 10:00:54;;;;;;;4.60;4.10;;;;;;;;;;5146158;27;20432;-67
2022/11/01 10:03:32;;;;;;;7.07;3.97;;;;;;;;;;5146481;27;20442;-67
2022/11/01 10:06:03;;;;;;;5.90;4.40;;;;;;;;;;5139453;27;20430;-68
2022/11/01 10:08:37;;;;;;;8.00;4.00;;;;;;;;;;5136806;27;20479;-67
2022/11/01 10:11:10;;;;;;;8.87;4.20;;;;;;;;;;5137234;27;20482;-67
2022/11/01 10:13:44;;;;;;;6.63;4.53;;;;;;;;;;5137763;27;20436;-67
2022/11/01 10:16:15;;;;;;;6.23;3.83;;;;;;;;;;5136936;27;20427;-67
2022/11/01 10:18:47;;;;;;;6.50;4.67;;;;;;;;;;5137790;27;21013;-67
2022/11/01 10:21:15;;;;;;;9.67;3.90;;;;;;;;;;5136730;27;20914;-67
2022/11/01 10:23:46;;;;;;;6.80;3.57;;;;;;;;;;5153773;22;20487;-65
2022/11/01 10:26:15;;;;;;;4.07;3.67;;;;;;;;;;5096955;28;20516;-64
2022/11/01 10:28:47;;;;;;;4.50;3.77;;;;;;;;;;5098206;28;20449;-65
2022/11/01 10:31:16;;;;;;;6.03;3.33;;;;;;;;;;5097883;28;20554;-65
2022/11/01 10:33:45;;;;;;;4.53;3.23;;;;;;;;;;5097275;28;20470;-66
2022/11/01 10:36:14;;;;;;;3.70;2.83;;;;;;;;;;5096331;28;20898;-65
2022/11/01 10:38:43;;;;;;;7.70;2.60;;;;;;;;;;5096644;28;20449;-65
2022/11/01 10:41:18;;;;;;;3.20;2.40;;;;;;;;;;5098913;28;20465;-65
2022/11/01 10:43:47;;;;;;;4.00;1.83;;;;;;;;;;5097595;28;20558;-67
2022/11/01 10:46:16;;;;;;;3.70;2.47;;;;;;;;;;5097979;28;20448;-67
2022/11/01 10:48:45;;;;;;;3.60;2.60;;;;;;;;;;5097872;28;20478;-66
2022/11/01 10:51:15;;;;;;;2.33;1.70;;;;;;;;;;5100387;28;20471;-66
2022/11/01 10:53:44;;;;;;;5.00;2.80;;;;;;;;;;5097531;28;20500;-67
2022/11/01 10:56:15;;;;;;;2.87;2.03;;;;;;;;;;5098075;28;20528;-67
2022/11/01 10:58:48;;;;;;;4.50;1.95;;;;;;;;;;5098012;28;20519;-66
2022/11/01 11:01:17;;;;;;;2.83;1.80;;;;;;;;;;5096642;28;20195;-68
2022/11/01 11:03:45;;;;;;;4.10;1.90;;;;;;;;;;5096337;28;20538;-66
2022/11/01 11:06:14;;;;;;;6.07;2.30;;;;;;;;;;5095418;28;20448;-66
2022/11/01 11:08:42;;;;;;;4.67;1.83;;;;;;;;;;5094970;28;20444;-66
2022/11/01 11:11:12;;;;;;;3.43;1.77;;;;;;;;;;5095420;28;20480;-65
2022/11/01 11:13:41;;;;;;;4.90;2.10;;;;;;;;;;5094972;28;20567;-66
2022/11/01 11:16:15;;;;;;;5.70;2.90;;;;;;;;;;5095569;28;20449;-66
2022/11/01 11:18:59;;;;;;;4.37;2.30;;;;;;;;;;5093914;28;20433;-66
2022/11/01 11:21:27;;;;;;;1.53;1.40;;;;;;;;;;5095629;28;20461;-67
2022/11/01 11:23:54;;;;;;;3.80;1.53;;;;;;;;;;5093995;28;20489;-65
2022/11/01 11:26:21;;;;;;;2.40;1.20;;;;;;;;;;5094767;28;20442;-65
2022/11/01 11:28:50;;;;;;;2.20;1.63;;;;;;;;;;5094093;28;20451;-64
2022/11/01 11:31:22;;;;;;;7.27;1.60;;;;;;;;;;5094386;28;20485;-66
2022/11/01 11:33:50;;;;;;;7.80;1.77;;;;;;;;;;5094688;28;20512;-66
2022/11/01 11:36:18;;;;;;;3.93;1.50;;;;;;;;;;5094177;28;20442;-65
2022/11/01 11:38:46;;;;;;;1.87;1.50;;;;;;;;;;5094623;28;20492;-65
2022/11/01 11:41:13;;;;;;;3.63;1.20;;;;;;;;;;5093372;28;20449;-64
2022/11/01 11:43:41;;;;;;;6.17;1.30;;;;;;;;;;5094305;28;20472;-65
2022/11/01 11:46:13;;;;;;;3.03;1.00;;;;;;;;;;5094229;28;20449;-66
2022/11/01 11:48:48;;;;;;;7.63;1.40;;;;;;;;;;5093430;28;20529;-63
2022/11/01 11:51:15;;;;;;;6.03;1.23;;;;;;;;;;5093096;28;20471;-63
2022/11/01 11:53:43;;;;;;;15.07;1.30;;;;;;;;;;5093455;28;20952;-64
2022/11/01 11:56:10;;;;;;;2.63;1.07;;;;;;;;;;5093868;28;20449;-65
2022/11/01 11:58:39;;;;;;;2.63;0.97;;;;;;;;;;5093854;28;20437;-67
2022/11/01 12:01:07;;;;;;;5.50;3.30;;;;;;;;;;5093313;28;20446;-65
2022/11/01 12:03:37;;;;;;;4.20;1.00;;;;;;;;;;5093336;28;20464;-66
2022/11/01 12:06:08;;;;;;;4.90;1.10;;;;;;;;;;5093500;28;20539;-67
2022/11/01 12:08:37;;;;;;;3.80;1.10;;;;;;;;;;5093834;28;20437;-65
2022/11/01 12:11:05;;;;;;;4.80;1.50;;;;;;;;;;5093975;28;20542;-65
2022/11/01 12:13:35;;;;;;;3.80;1.33;;;;;;;;;;5093824;28;20460;-66
2022/11/01 12:16:19;;;;;;;3.80;1.80;;;;;;;;;;5094292;28;20470;-66
2022/11/01 12:18:52;;;;;;;4.93;1.30;;;;;;;;;;5094437;28;20444;-65
2022/11/01 12:21:22;;;;;;;5.00;1.20;;;;;;;;;;5093402;28;20426;-64
2022/11/01 12:23:50;;;;;;;6.50;1.67;;;;;;;;;;5094407;28;20511;-65
2022/11/01 12:26:19;;;;;;;4.93;1.40;;;;;;;;;;5094303;28;20437;-64
2022/11/01 12:28:49;;;;;;;4.13;1.47;;;;;;;;;;5093814;28;20468;-66
2022/11/01 12:31:18;;;;;;;3.60;1.13;;;;;;;;;;5096931;28;20567;-64
2022/11/01 12:33:47;;;;;;;4.40;1.70;;;;;;;;;;5098462;28;20560;-65
2022/11/01 12:36:15;;;;;;;4.67;1.30;;;;;;;;;;5097951;28;20451;-67
2022/11/01 12:38:44;;;;;;;5.07;2.20;;;;;;;;;;5097984;28;20455;-65
2022/11/01 12:41:19;;;;;;;7.43;1.43;;;;;;;;;;5097796;28;20975;-66
2022/11/01 12:43:54;;;;;;;3.20;1.20;;;;;;;;;;5097666;28;20476;-66
2022/11/01 12:46:24;;;;;;;6.20;1.87;;;;;;;;;;5097944;28;20898;-65
2022/11/01 12:48:54;;;;;;;3.60;1.00;;;;;;;;;;5098374;28;20808;-66
2022/11/01 12:51:25;;;;;;;5.53;1.23;;;;;;;;;;5098593;28;20500;-65
2022/11/01 12:53:55;;;;;;;4.30;1.50;;;;;;;;;;5098526;28;20486;-65
2022/11/01 12:56:22;;;;;;;5.17;1.40;;;;;;;;;;5098677;28;20522;-66
2022/11/01 12:58:52;;;;;;;4.60;1.50;;;;;;;;;;5098180;28;20535;-66
2022/11/01 13:01:27;;;;;;;5.07;1.70;;;;;;;;;;5097663;28;20788;-66
2022/11/01 13:04:03;;;;;;;4.67;1.70;;;;;;;;;;5097699;28;20471;-65
2022/11/01 13:06:47;;;;;;;4.13;1.90;;;;;;;;;;5098409;28;20437;-65
2022/11/01 13:09:18;;;;;;;6.40;1.50;;;;;;;;;;5100782;28;20448;-65
2022/11/01 13:11:50;;;;;;;8.40;1.90;;;;;;;;;;5099798;28;20535;-65
2022/11/01 13:14:26;;;;;;;3.57;1.53;;;;;;;;;;5098370;28;20506;-67
2022/11/01 13:16:56;;;;;;;6.20;1.93;;;;;;;;;;5096784;28;20971;-64
2022/11/01 13:19:27;;;;;;;8.63;1.83;;;;;;;;;;5097201;28;20443;-65
2022/11/01 13:21:56;;;;;;;4.73;1.60;;;;;;;;;;5097332;28;20455;-66
2022/11/01 13:24:28;;;;;;;4.03;1.20;;;;;;;;;;5095776;28;20473;-65
2022/11/01 13:26:57;;;;;;;4.13;1.63;;;;;;;;;;5096443;28;20425;-66
2022/11/01 13:29:30;;;;;;;4.60;1.83;;;;;;;;;;5098084;28;20444;-67
2022/11/01 13:32:01;;;;;;;3.23;1.50;;;;;;;;;;5097231;28;20468;-66
2022/11/01 13:34:35;;;;;;;5.27;1.70;;;;;;;;;;5096608;28;20464;-65
2022/11/01 13:37:05;;;;;;;5.57;1.67;;;;;;;;;;5096626;28;20431;-65
2022/11/01 13:39:37;;;;;;;4.90;1.77;;;;;;;;;;5096847;28;20447;-66
2022/11/01 13:42:06;;;;;;;4.87;2.10;;;;;;;;;;5095450;28;20924;-66
2022/11/01 13:44:38;;;;;;;6.43;1.80;;;;;;;;;;5096690;28;20884;-65
2022/11/01 13:47:22;;;;;;;8.03;1.83;;;;;;;;;;5096381;28;20445;-66
2022/11/01 13:50:04;;;;;;;6.20;1.70;;;;;;;;;;5096540;28;20519;-66
2022/11/01 13:52:32;;;;;;;7.43;1.50;;;;;;;;;;5052322;28;20480;-65
2022/11/01 13:55:07;;;;;;;5.77;1.53;;;;;;;;;;5095931;28;20471;-65
2022/11/01 13:57:34;;;;;;;6.20;1.53;;;;;;;;;;5099851;28;20469;-66
2022/11/01 14:00:02;;;;;;;3.90;1.67;;;;;;;;;;5096965;28;20450;-66
2022/11/01 14:02:34;;;;;;;3.07;1.27;;;;;;;;;;5098149;28;20448;-66
2022/11/01 14:05:02;;;;;;;10.37;2.10;;;;;;;;;;5097377;28;20465;-64
2022/11/01 14:07:31;;;;;;;5.00;1.70;;;;;;;;;;5097960;28;20445;-64
2022/11/01 14:09:58;;;;;;;5.10;1.77;;;;;;;;;;5099159;28;20440;-64
2022/11/01 14:12:34;;;;;;;6.03;1.93;;;;;;;;;;5097482;28;20480;-64
2022/11/01 14:15:16;;;;;;;5.27;2.20;;;;;;;;;;5096721;28;20486;-65
2022/11/01 14:18:02;;;;;;;3.87;1.83;;;;;;;;;;5096582;28;20515;-66
2022/11/01 14:20:40;;;;;;;6.73;1.50;;;;;;;;;;5096792;28;20429;-63
2022/11/01 14:23:22;;;;;;;12.00;2.20;;;;;;;;;;5097075;28;20517;-65
2022/11/01 14:25:49;;;;;;;7.70;1.80;;;;;;;;;;5095312;28;20447;-65
2022/11/01 14:28:23;;;;;;;4.03;1.63;;;;;;;;;;5095460;28;20445;-65
2022/11/01 14:30:52;;;;;;;6.73;1.83;;;;;;;;;;5096727;28;20459;-65
2022/11/01 14:33:20;;;;;;;3.67;1.50;;;;;;;;;;5096641;28;20481;-61
2022/11/01 14:35:52;;;;;;;5.27;1.57;;;;;;;;;;5096342;28;20493;-62
2022/11/01 14:38:21;;;;;;;11.13;2.27;;;;;;;;;;5096916;28;20906;-64
2022/11/01 14:40:50;;;;;;;5.63;1.50;;;;;;;;;;5097369;28;20440;-62
2022/11/01 14:43:19;;;;;;;5.80;1.90;;;;;;;;;;5095227;28;20471;-64
2022/11/01 14:45:50;;;;;;;6.00;1.90;;;;;;;;;;5095405;28;20562;-62
2022/11/01 14:48:19;;;;;;;5.37;1.57;;;;;;;;;;5095054;28;20794;-60
2022/11/01 14:50:49;;;;;;;12.27;2.43;;;;;;;;;;5095056;28;20471;-63